Aviation Digital Data Service (ADDS)

Output produced by METARs form (1251 UTC 19 January 2019)
found at http://www.aviationweather.gov/metar/data/
 
Forecast for: OIAW (AHWAZ , IR)
Text: TAF OIAW 191130Z 1912/2018 30008KT 7000 NSC
Forecast period: 1200 UTC 19 January 2019 to 1800 UTC 20 January 2019
Forecast type: FROM: standard forecast or significant change
Winds: from the WNW (300 degrees) at 9 MPH (8 knots; 4.1 m/s)
Visibility: 4 miles (7 km)
Ceiling: unknown
Clouds: missing
Weather: no significant weather forecast for this period
Text: TEMPO 2000/2004 5000 BR
Forecast period: 0000 to 0400 UTC 20 January 2019
Forecast type: TEMPORARY: The following changes expected for less than half the time period
Visibility: 3 miles (5 km)
Ceiling: unknown
Clouds: missing
Weather: BR  (mist)
Text: TEMPO 2008/2012 30016KT
Forecast period: 0800 to 1200 UTC 20 January 2019
Forecast type: TEMPORARY: The following changes expected for less than half the time period
Winds: from the WNW (300 degrees) at 18 MPH (16 knots; 8.2 m/s)
Visibility: missing
Ceiling: unknown
Clouds: missing
Weather: no significant weather forecast for this period